createdAt,value
2018-12-11T00:02:14.960Z,7.07
2018-12-11T00:04:43.562Z,10.53
2018-12-11T00:07:12.408Z,9.03
2018-12-11T00:09:41.024Z,7.43
2018-12-11T00:12:09.537Z,10.57
2018-12-11T00:14:37.985Z,7.83
2018-12-11T00:17:06.406Z,7.73
2018-12-11T00:19:34.809Z,13.17
2018-12-11T00:22:03.558Z,7.40
2018-12-11T00:24:32.183Z,7.77
2018-12-11T00:27:00.731Z,11.63
2018-12-11T00:29:29.295Z,7.70
2018-12-11T00:31:57.859Z,11.00
2018-12-11T00:34:26.307Z,7.00
2018-12-11T00:36:54.724Z,7.97
2018-12-11T00:39:24.115Z,5.87
2018-12-11T00:41:53.143Z,11.33
2018-12-11T00:44:22.507Z,7.43
2018-12-11T00:46:51.831Z,10.23
2018-12-11T00:49:21.926Z,11.70
2018-12-11T00:51:50.892Z,8.80
2018-12-11T00:54:20.378Z,8.80
2018-12-11T00:56:49.785Z,12.37
2018-12-11T00:59:20.931Z,11.07
2018-12-11T01:04:43.119Z,6.50
2018-12-11T01:07:11.771Z,6.77
2018-12-11T01:09:41.390Z,6.80
2018-12-11T01:12:10.607Z,9.17
2018-12-11T01:14:40.290Z,13.27
2018-12-11T01:17:09.648Z,8.10
2018-12-11T01:19:39.481Z,15.13
2018-12-11T01:22:10.454Z,8.70
2018-12-11T01:24:39.276Z,8.60
2018-12-11T01:27:09.595Z,8.13
2018-12-11T01:29:38.568Z,10.37
2018-12-11T01:32:11.296Z,9.87
2018-12-11T01:34:45.331Z,6.97
2018-12-11T01:37:14.561Z,13.87
2018-12-11T01:39:44.417Z,11.43
2018-12-11T01:42:16.256Z,12.60
2018-12-11T01:44:45.323Z,9.97
2018-12-11T01:47:15.887Z,10.70
2018-12-11T01:49:44.635Z,10.00
2018-12-11T01:52:13.895Z,9.30
2018-12-11T01:54:44.069Z,9.63
2018-12-11T01:57:15.371Z,14.03
2018-12-11T01:59:45.273Z,10.83
2018-12-11T02:02:14.648Z,8.37
2018-12-11T02:04:45.502Z,9.33
2018-12-11T02:07:15.551Z,6.30
2018-12-11T02:09:44.975Z,15.47
2018-12-11T02:12:15.643Z,10.13
2018-12-11T02:14:44.680Z,12.43
2018-12-11T02:17:14.299Z,12.20
2018-12-11T02:19:44.585Z,10.30
2018-12-11T02:22:15.540Z,15.67
2018-12-11T02:24:45.465Z,12.23
2018-12-11T02:27:15.271Z,8.77
2018-12-11T02:29:44.491Z,17.10
2018-12-11T02:32:13.518Z,14.37
2018-12-11T02:34:42.956Z,11.13
2018-12-11T02:37:11.963Z,10.87
2018-12-11T02:39:41.082Z,10.73
2018-12-11T02:42:10.918Z,13.13
2018-12-11T02:44:40.491Z,5.77
2018-12-11T02:47:10.018Z,16.13
2018-12-11T02:49:39.356Z,7.53
2018-12-11T02:52:08.796Z,11.57
2018-12-11T02:54:38.155Z,15.97
2018-12-11T02:57:08.625Z,10.83
2018-12-11T02:59:37.163Z,11.87
2018-12-11T03:02:07.429Z,10.90
2018-12-11T03:04:37.520Z,8.40
2018-12-11T03:07:06.935Z,5.47
2018-12-11T03:09:36.921Z,15.27
2018-12-11T03:12:06.169Z,11.67
2018-12-11T03:14:37.807Z,8.70
2018-12-11T03:17:10.194Z,6.70
2018-12-11T03:19:40.832Z,7.83
2018-12-11T03:22:11.626Z,10.50
2018-12-11T03:24:41.069Z,8.27
2018-12-11T03:27:10.536Z,5.90
2018-12-11T03:29:40.224Z,9.23
2018-12-11T03:32:09.657Z,9.87
2018-12-11T03:34:38.641Z,9.90
2018-12-11T03:37:07.441Z,7.77
2018-12-11T03:39:36.244Z,13.00
2018-12-11T03:42:06.470Z,9.67
2018-12-11T03:44:35.680Z,13.30
2018-12-11T03:47:05.298Z,12.17
2018-12-11T03:49:35.365Z,14.00
2018-12-11T03:52:04.878Z,11.93
2018-12-11T03:54:34.299Z,10.47
2018-12-11T03:57:04.040Z,14.83
2018-12-11T03:59:34.065Z,14.10
2018-12-11T04:02:04.557Z,14.27
2018-12-11T04:04:33.728Z,14.10
2018-12-11T04:07:03.400Z,12.33
2018-12-11T04:09:33.428Z,15.60
2018-12-11T04:12:02.675Z,13.80
2018-12-11T04:14:33.718Z,8.50
2018-12-11T04:17:05.247Z,14.20
2018-12-11T04:19:35.961Z,12.67
2018-12-11T04:22:09.914Z,13.97
2018-12-11T04:24:39.232Z,10.97
2018-12-11T04:27:10.430Z,13.80
2018-12-11T04:29:40.836Z,11.87
2018-12-11T04:32:09.579Z,12.00
2018-12-11T04:34:40.655Z,9.27
2018-12-11T04:37:10.022Z,10.43
2018-12-11T04:39:39.175Z,13.10
2018-12-11T04:42:10.039Z,10.93
2018-12-11T04:44:39.631Z,10.07
2018-12-11T04:47:12.629Z,9.30
2018-12-11T04:49:42.390Z,11.17
2018-12-11T04:52:12.020Z,7.83
2018-12-11T04:54:46.402Z,12.67
2018-12-11T04:57:16.193Z,10.93
2018-12-11T04:59:45.942Z,12.43
2018-12-11T05:02:15.317Z,14.30
2018-12-11T05:04:47.628Z,7.77
2018-12-11T05:07:17.956Z,9.43
2018-12-11T05:09:46.767Z,10.10
2018-12-11T05:12:17.380Z,4.93
2018-12-11T05:14:48.857Z,10.00
2018-12-11T05:17:18.733Z,10.63
2018-12-11T05:19:50.047Z,12.17
2018-12-11T05:22:20.380Z,8.33
2018-12-11T05:24:50.411Z,8.53
2018-12-11T05:27:19.800Z,13.63
2018-12-11T05:29:49.052Z,13.03
2018-12-11T05:32:17.870Z,9.30
2018-12-11T05:34:48.443Z,12.10
2018-12-11T05:37:18.303Z,9.23
2018-12-11T05:39:48.863Z,12.83
2018-12-11T05:42:19.299Z,10.60
2018-12-11T05:44:48.762Z,8.70
2018-12-11T05:47:19.388Z,10.60
2018-12-11T05:49:50.107Z,13.03
2018-12-11T05:52:18.895Z,10.40
2018-12-11T05:54:47.984Z,11.23
2018-12-11T05:57:17.511Z,7.23
2018-12-11T05:59:46.983Z,10.93
2018-12-11T06:02:17.907Z,9.83
2018-12-11T06:04:47.204Z,13.87
2018-12-11T06:07:17.011Z,10.93
2018-12-11T06:09:46.604Z,9.33
2018-12-11T06:12:16.251Z,9.73
2018-12-11T06:14:47.623Z,15.73
2018-12-11T06:17:16.201Z,12.23
2018-12-11T06:19:44.818Z,10.77
2018-12-11T06:22:14.218Z,12.27
2018-12-11T06:24:44.436Z,8.80
2018-12-11T06:27:13.534Z,6.87
2018-12-11T06:29:44.053Z,13.77
2018-12-11T06:32:15.597Z,7.70
2018-12-11T06:34:45.260Z,7.13
2018-12-11T06:37:15.341Z,9.93
2018-12-11T06:39:48.193Z,13.57
2018-12-11T06:42:18.543Z,12.30
2018-12-11T06:44:48.330Z,10.90
2018-12-11T06:47:17.333Z,10.00
2018-12-11T06:49:46.378Z,12.57
2018-12-11T06:52:15.556Z,9.50
2018-12-11T06:54:46.313Z,9.83
2018-12-11T06:57:15.585Z,8.53
2018-12-11T06:59:45.025Z,9.80
2018-12-11T07:02:17.056Z,14.87
2018-12-11T07:04:46.288Z,17.67
2018-12-11T07:07:15.131Z,11.23
2018-12-11T07:09:43.792Z,9.20
2018-12-11T07:12:15.192Z,15.47
2018-12-11T07:14:45.141Z,13.77
2018-12-11T07:17:15.238Z,18.03
2018-12-11T07:19:44.435Z,13.20
2018-12-11T07:22:14.217Z,14.67
2018-12-11T07:24:49.412Z,15.23
2018-12-11T07:27:20.020Z,12.00
2018-12-11T07:29:49.302Z,14.77
2018-12-11T07:32:18.213Z,13.17
2018-12-11T07:34:47.563Z,16.10
2018-12-11T07:37:18.199Z,17.87
2018-12-11T07:39:48.537Z,12.47
2018-12-11T07:42:18.039Z,16.47
2018-12-11T07:44:47.084Z,16.90
2018-12-11T07:47:18.671Z,14.53
2018-12-11T07:49:48.362Z,14.07
2018-12-11T07:52:18.676Z,14.13
2018-12-11T07:54:47.685Z,9.63
2018-12-11T07:57:23.029Z,14.57
2018-12-11T07:59:52.047Z,12.00
2018-12-11T08:02:22.470Z,13.07
2018-12-11T08:04:51.107Z,8.50
2018-12-11T08:07:19.873Z,11.13
2018-12-11T08:09:48.686Z,14.87
2018-12-11T08:12:17.555Z,12.23
2018-12-11T08:14:47.378Z,15.07
2018-12-11T08:17:17.621Z,15.20
2018-12-11T08:19:47.691Z,14.43
2018-12-11T08:22:20.424Z,13.50
2018-12-11T08:24:50.244Z,16.50
2018-12-11T08:27:19.855Z,16.00
2018-12-11T08:29:48.624Z,10.70
2018-12-11T08:32:17.724Z,9.80
2018-12-11T08:34:47.232Z,9.23
2018-12-11T08:37:16.796Z,7.93
2018-12-11T08:39:46.668Z,9.13
2018-12-11T08:42:15.241Z,8.80
2018-12-11T08:44:44.319Z,8.47
2018-12-11T08:47:14.609Z,8.60
2018-12-11T08:49:44.113Z,12.63
2018-12-11T08:52:13.321Z,11.93
2018-12-11T08:54:43.304Z,11.17
2018-12-11T08:57:13.962Z,15.40
2018-12-11T08:59:43.660Z,12.23
2018-12-11T09:02:17.533Z,9.30
2018-12-11T09:04:46.547Z,10.00
2018-12-11T09:07:15.936Z,12.97
2018-12-11T09:09:45.215Z,8.13
2018-12-11T09:12:14.643Z,9.63
2018-12-11T09:14:44.889Z,10.30
2018-12-11T09:17:14.124Z,10.83
2018-12-11T09:19:43.536Z,9.43
2018-12-11T09:22:30.605Z,12.97
2018-12-11T09:25:00.337Z,14.80
2018-12-11T09:27:34.084Z,15.83
2018-12-11T09:30:03.723Z,11.67
2018-12-11T09:32:33.161Z,10.90
2018-12-11T09:35:03.097Z,11.13
2018-12-11T09:37:36.199Z,10.87
2018-12-11T09:40:06.752Z,9.40
2018-12-11T09:42:39.788Z,7.87
2018-12-11T09:45:08.950Z,10.03
2018-12-11T09:47:52.039Z,9.00
2018-12-11T09:50:22.240Z,11.00
2018-12-11T09:52:52.392Z,14.17
2018-12-11T09:55:23.489Z,12.53
2018-12-11T09:57:52.720Z,9.73
2018-12-11T10:00:25.718Z,9.60
2018-12-11T10:03:01.125Z,9.70
2018-12-11T10:05:32.192Z,13.33
2018-12-11T10:08:01.023Z,13.30
2018-12-11T10:10:31.726Z,13.00
2018-12-11T10:13:01.425Z,8.23
2018-12-11T10:15:31.339Z,9.97
2018-12-11T10:18:01.787Z,10.00
2018-12-11T10:20:30.791Z,11.27
2018-12-11T10:23:00.083Z,10.70
2018-12-11T10:25:28.676Z,11.07
2018-12-11T10:27:57.269Z,9.87
2018-12-11T10:30:27.884Z,10.00
2018-12-11T10:32:56.666Z,7.83
2018-12-11T10:35:25.084Z,8.07
2018-12-11T10:37:53.493Z,10.07
2018-12-11T10:40:21.958Z,9.80
2018-12-11T10:42:50.455Z,8.30
2018-12-11T10:45:18.851Z,8.40
2018-12-11T10:48:07.038Z,6.60
2018-12-11T10:50:35.439Z,7.87
2018-12-11T10:53:04.135Z,7.13
2018-12-11T10:55:32.562Z,8.90
2018-12-11T10:58:01.163Z,10.50
2018-12-11T11:00:34.703Z,6.07
2018-12-11T11:03:07.097Z,11.03
2018-12-11T11:05:35.869Z,7.17
2018-12-11T11:08:04.671Z,9.93
2018-12-11T11:10:33.213Z,6.70
2018-12-11T11:13:01.735Z,8.13
2018-12-11T11:15:30.413Z,8.40
2018-12-11T11:17:58.956Z,7.27
2018-12-11T11:20:27.533Z,7.23
2018-12-11T11:22:56.062Z,7.40
2018-12-11T11:25:24.435Z,8.50
2018-12-11T11:27:52.821Z,8.90
2018-12-11T11:30:21.291Z,10.90
2018-12-11T11:32:49.893Z,11.97
2018-12-11T11:35:18.429Z,8.13
2018-12-11T11:37:47.072Z,11.33
2018-12-11T11:40:15.615Z,11.03
2018-12-11T11:42:44.301Z,11.00
2018-12-11T11:45:13.233Z,8.70
2018-12-11T11:47:41.740Z,8.43
2018-12-11T11:50:13.187Z,7.97
2018-12-11T11:52:41.655Z,10.03
2018-12-11T11:55:10.048Z,15.83
2018-12-11T11:57:38.668Z,10.73
2018-12-11T12:00:09.662Z,8.97
2018-12-11T12:02:38.054Z,12.63
2018-12-11T12:05:07.124Z,6.90
2018-12-11T12:07:35.513Z,9.63
2018-12-11T12:10:05.227Z,9.30
2018-12-11T12:12:33.747Z,10.93
2018-12-11T12:15:02.273Z,11.63
2018-12-11T12:17:30.780Z,14.20
2018-12-11T12:19:59.183Z,8.63
2018-12-11T12:22:27.609Z,8.67
2018-12-11T12:24:55.987Z,12.73
2018-12-11T12:27:24.355Z,6.50
2018-12-11T12:29:52.745Z,9.00
2018-12-11T12:32:21.173Z,9.63
2018-12-11T12:34:49.608Z,9.83
2018-12-11T12:37:18.120Z,9.03
2018-12-11T12:39:46.518Z,8.23
2018-12-11T12:42:14.941Z,9.93
2018-12-11T12:44:43.413Z,8.30
2018-12-11T12:47:11.788Z,9.70
2018-12-11T12:49:40.195Z,10.07
2018-12-11T12:52:08.612Z,9.00
2018-12-11T12:54:37.126Z,11.47
2018-12-11T12:57:05.528Z,9.47
2018-12-11T12:59:33.970Z,10.10
2018-12-11T13:02:02.353Z,10.83
2018-12-11T13:04:30.765Z,8.60
2018-12-11T13:07:00.072Z,6.13
2018-12-11T13:09:28.443Z,11.37
2018-12-11T13:11:57.004Z,11.83
2018-12-11T13:14:25.411Z,10.97
2018-12-11T13:16:53.832Z,11.90
2018-12-11T13:19:22.243Z,8.57
2018-12-11T13:21:50.647Z,10.20
2018-12-11T13:24:19.115Z,8.93
2018-12-11T13:26:47.712Z,8.07
2018-12-11T13:29:16.231Z,7.17
2018-12-11T13:31:44.785Z,14.07
2018-12-11T13:34:13.219Z,6.03
2018-12-11T13:36:41.604Z,8.77
2018-12-11T13:39:09.994Z,5.93
2018-12-11T13:41:38.419Z,6.80
2018-12-11T13:44:07.055Z,9.60
2018-12-11T13:46:35.767Z,5.87
2018-12-11T13:49:04.319Z,7.30
2018-12-11T13:51:32.712Z,5.97
2018-12-11T13:54:01.122Z,5.13
2018-12-11T13:56:29.511Z,8.50
2018-12-11T13:58:57.995Z,7.27
2018-12-11T14:01:26.376Z,8.00
2018-12-11T14:03:54.785Z,5.53
2018-12-11T14:06:23.935Z,9.60
2018-12-11T14:08:52.349Z,6.40
2018-12-11T14:11:20.753Z,8.40
2018-12-11T14:13:49.166Z,9.07
2018-12-11T14:16:17.537Z,9.73
2018-12-11T14:18:45.920Z,9.43
2018-12-11T14:21:14.446Z,9.50
2018-12-11T14:23:42.832Z,10.43
2018-12-11T14:26:11.198Z,12.40
2018-12-11T14:28:39.801Z,9.90
2018-12-11T14:31:08.213Z,6.63
2018-12-11T14:33:36.647Z,7.60
2018-12-11T14:36:05.071Z,9.90
2018-12-11T14:38:33.452Z,8.27
2018-12-11T14:41:01.980Z,9.93
2018-12-11T14:43:30.361Z,7.77
2018-12-11T14:45:58.803Z,14.47
2018-12-11T14:48:27.214Z,9.43
2018-12-11T14:50:55.667Z,9.30
2018-12-11T14:53:24.025Z,9.67
2018-12-11T14:55:52.402Z,11.77
2018-12-11T14:58:20.755Z,8.07
2018-12-11T15:00:49.184Z,6.27
2018-12-11T15:03:17.557Z,8.97
2018-12-11T15:05:45.981Z,9.60
2018-12-11T15:08:14.358Z,10.73
2018-12-11T15:10:42.756Z,11.67
2018-12-11T15:13:11.472Z,9.37
2018-12-11T15:15:40.844Z,10.10
2018-12-11T15:18:09.432Z,8.97
2018-12-11T15:20:37.824Z,8.70
2018-12-11T15:23:06.364Z,8.60
2018-12-11T15:25:34.788Z,9.53
2018-12-11T15:28:03.148Z,11.33
2018-12-11T15:30:31.520Z,9.30
2018-12-11T15:32:59.879Z,7.47
2018-12-11T15:35:28.313Z,9.60
2018-12-11T15:37:56.683Z,11.00
2018-12-11T15:40:25.092Z,13.87
2018-12-11T15:42:53.560Z,8.83
2018-12-11T15:45:21.991Z,10.67
2018-12-11T15:47:50.487Z,14.37
2018-12-11T15:50:19.418Z,16.23
2018-12-11T15:52:48.145Z,11.37
2018-12-11T15:57:54.416Z,8.13
2018-12-11T16:00:23.189Z,12.43
2018-12-11T16:02:52.589Z,11.03
2018-12-11T16:05:21.260Z,11.87
2018-12-11T16:07:49.697Z,11.03
2018-12-11T16:10:18.083Z,9.97
2018-12-11T16:12:46.562Z,14.20
2018-12-11T16:15:14.984Z,11.93
2018-12-11T16:17:43.408Z,10.03
2018-12-11T16:20:11.819Z,11.37
2018-12-11T16:22:40.201Z,8.40
2018-12-11T16:25:08.926Z,11.00
2018-12-11T16:27:37.655Z,14.20
2018-12-11T16:30:07.973Z,10.70
2018-12-11T16:32:36.374Z,12.17
2018-12-11T16:35:05.299Z,12.10
2018-12-11T16:37:33.823Z,14.60
2018-12-11T16:40:04.684Z,14.20
2018-12-11T16:42:32.673Z,15.53
2018-12-11T16:45:01.119Z,13.20
2018-12-11T16:47:29.595Z,13.83
2018-12-11T16:49:58.227Z,8.53
2018-12-11T16:52:26.666Z,10.07
2018-12-11T16:54:55.164Z,10.90
2018-12-11T16:57:23.608Z,15.67
2018-12-11T16:59:52.027Z,9.50
2018-12-11T17:02:20.580Z,10.13
2018-12-11T17:04:49.200Z,11.77
2018-12-11T17:07:17.895Z,13.67
2018-12-11T17:09:46.423Z,16.83
2018-12-11T17:12:14.894Z,11.77
2018-12-11T17:14:43.415Z,11.87
2018-12-11T17:17:11.960Z,11.33
2018-12-11T17:19:40.456Z,16.87
2018-12-11T17:22:09.032Z,15.93
2018-12-11T17:24:37.384Z,9.97
2018-12-11T17:27:05.784Z,14.47
2018-12-11T17:29:34.460Z,11.57
2018-12-11T17:32:03.147Z,15.63
2018-12-11T17:34:31.583Z,15.20
2018-12-11T17:37:00.095Z,15.93
2018-12-11T17:39:28.513Z,15.40
2018-12-11T17:41:57.147Z,12.43
2018-12-11T17:44:25.538Z,13.83
2018-12-11T17:46:54.855Z,11.73
2018-12-11T17:49:24.184Z,15.13
2018-12-11T17:51:52.929Z,13.17
2018-12-11T17:54:21.352Z,16.43
2018-12-11T17:56:49.975Z,17.17
2018-12-11T17:59:18.396Z,10.07
2018-12-11T18:01:50.411Z,13.00
2018-12-11T18:04:18.826Z,11.33
2018-12-11T18:06:47.413Z,8.80
2018-12-11T18:09:16.104Z,14.77
2018-12-11T18:11:44.543Z,15.77
2018-12-11T18:14:12.947Z,18.77
2018-12-11T18:16:41.383Z,14.23
2018-12-11T18:19:09.841Z,11.30
2018-12-11T18:21:38.387Z,18.37
2018-12-11T18:24:06.805Z,16.73
2018-12-11T18:26:35.249Z,12.90
2018-12-11T18:29:03.660Z,8.57
2018-12-11T18:31:32.142Z,9.13
2018-12-11T18:34:00.619Z,11.37
2018-12-11T18:36:29.070Z,11.00
2018-12-11T18:38:57.514Z,8.67
2018-12-11T18:41:26.957Z,6.50
2018-12-11T18:43:55.384Z,7.60
2018-12-11T18:46:24.064Z,11.37
2018-12-11T18:48:52.474Z,7.50
2018-12-11T18:51:20.999Z,10.57
2018-12-11T18:53:49.431Z,9.37
2018-12-11T18:56:17.959Z,8.90
2018-12-11T18:58:46.360Z,9.27
2018-12-11T19:01:14.809Z,11.73
2018-12-11T19:03:49.140Z,9.03
2018-12-11T19:06:13.763Z,13.77
2018-12-11T19:11:19.868Z,10.87
2018-12-11T19:13:48.329Z,17.10
2018-12-11T19:16:16.744Z,63.03
2018-12-11T19:18:45.209Z,49.73
2018-12-11T19:21:13.604Z,47.30
2018-12-11T19:23:51.150Z,27.70
2018-12-11T19:26:20.136Z,166.63
2018-12-11T19:28:48.567Z,122.90
2018-12-11T19:31:17.051Z,123.90
2018-12-11T19:33:45.479Z,23.87
2018-12-11T19:36:14.027Z,127.97
2018-12-11T19:38:42.429Z,112.83
2018-12-11T19:41:11.047Z,180.13
2018-12-11T19:43:40.578Z,66.77
2018-12-11T19:46:08.971Z,88.70
2018-12-11T19:48:37.403Z,24.30
2018-12-11T19:51:05.794Z,35.03
2018-12-11T19:53:34.263Z,24.40
2018-12-11T19:56:02.695Z,18.57
2018-12-11T19:58:31.128Z,12.53
2018-12-11T20:01:00.385Z,12.57
2018-12-11T20:03:28.844Z,8.03
2018-12-11T20:05:57.260Z,10.53
2018-12-11T20:08:31.093Z,11.27
2018-12-11T20:10:57.389Z,11.47
2018-12-11T20:13:25.948Z,13.70
2018-12-11T20:15:54.362Z,12.33
2018-12-11T20:18:22.759Z,11.87
2018-12-11T20:20:51.600Z,10.90
2018-12-11T20:23:20.091Z,14.33
2018-12-11T20:25:48.515Z,9.97
2018-12-11T20:28:16.990Z,13.67
2018-12-11T20:30:45.400Z,10.40
2018-12-11T20:33:13.819Z,9.77
2018-12-11T20:35:42.229Z,14.47
2018-12-11T20:38:10.706Z,13.37
2018-12-11T20:40:39.155Z,13.57
2018-12-11T20:43:07.752Z,14.67
2018-12-11T20:45:36.246Z,14.70
2018-12-11T20:48:04.829Z,18.20
2018-12-11T20:50:33.313Z,16.53
2018-12-11T20:53:04.888Z,16.90
2018-12-11T20:55:33.379Z,18.40
2018-12-11T20:58:06.201Z,17.40
2018-12-11T21:00:34.831Z,17.30
2018-12-11T21:03:07.655Z,17.40
2018-12-11T21:05:36.118Z,19.27
2018-12-11T21:08:04.664Z,23.20
2018-12-11T21:10:33.289Z,20.47
2018-12-11T21:13:01.764Z,19.73
2018-12-11T21:15:30.227Z,24.10
2018-12-11T21:17:59.471Z,22.27
2018-12-11T21:20:27.900Z,21.57
2018-12-11T21:22:56.371Z,24.57
2018-12-11T21:25:24.808Z,21.53
2018-12-11T21:27:53.292Z,18.67
2018-12-11T21:30:21.775Z,24.73
2018-12-11T21:32:50.215Z,23.10
2018-12-11T21:35:18.631Z,21.10
2018-12-11T21:37:50.803Z,26.67
2018-12-11T21:40:19.228Z,29.10
2018-12-11T21:42:47.683Z,27.63
2018-12-11T21:45:16.470Z,26.37
2018-12-11T21:47:44.902Z,25.60
2018-12-11T21:50:13.513Z,25.93
2018-12-11T21:52:41.965Z,23.33
2018-12-11T21:55:10.410Z,23.47
2018-12-11T21:57:38.855Z,28.77
2018-12-11T22:00:10.299Z,24.07
2018-12-11T22:02:38.792Z,27.03
2018-12-11T22:05:07.316Z,29.70
2018-12-11T22:07:35.775Z,27.47
2018-12-11T22:10:05.351Z,27.57
2018-12-11T22:12:34.126Z,28.47
2018-12-11T22:15:02.575Z,35.37
2018-12-11T22:17:31.013Z,31.07
2018-12-11T22:19:59.407Z,33.93
2018-12-11T22:22:27.811Z,25.83
2018-12-11T22:24:56.223Z,34.07
2018-12-11T22:27:24.681Z,31.13
2018-12-11T22:29:54.176Z,32.77
2018-12-11T22:32:22.599Z,35.97
2018-12-11T22:34:51.065Z,34.27
2018-12-11T22:37:19.507Z,41.10
2018-12-11T22:39:49.071Z,42.73
2018-12-11T22:42:17.452Z,39.43
2018-12-11T22:44:45.860Z,36.97
2018-12-11T22:47:14.278Z,41.10
2018-12-11T22:49:42.681Z,35.87
2018-12-11T22:52:11.110Z,29.67
2018-12-11T22:54:39.823Z,32.10
2018-12-11T22:57:08.350Z,29.77
2018-12-11T22:59:36.827Z,34.90
2018-12-11T23:02:05.411Z,34.67
2018-12-11T23:04:33.928Z,32.67
2018-12-11T23:07:02.322Z,33.20
2018-12-11T23:09:30.790Z,32.10
2018-12-11T23:12:00.031Z,30.70
2018-12-11T23:14:28.642Z,31.20
2018-12-11T23:16:57.036Z,30.20
2018-12-11T23:19:25.455Z,28.90
2018-12-11T23:21:53.915Z,30.70
2018-12-11T23:24:22.371Z,35.70
2018-12-11T23:26:50.747Z,32.90
2018-12-11T23:29:19.186Z,29.30
2018-12-11T23:31:47.583Z,29.93
2018-12-11T23:34:16.071Z,30.37
2018-12-11T23:36:44.515Z,29.40
2018-12-11T23:39:13.042Z,31.20
2018-12-11T23:41:41.559Z,32.13
2018-12-11T23:44:09.987Z,33.07
2018-12-11T23:46:38.434Z,38.77
2018-12-11T23:49:06.826Z,45.63
2018-12-11T23:51:35.989Z,47.40
2018-12-11T23:54:04.631Z,51.47
2018-12-11T23:56:33.043Z,54.10
2018-12-11T23:59:01.546Z,51.50
